Time;durP1;ratioP1;P1;durP2;ratioP2;P2;SDS_P1;SDS_P2;PMS_P1;PMS_P2;Temp;Humidity;BMP_temperature;BMP_pressure;BME280_temperature;BME280_humidity;BME280_pressure;Samples;Min_cycle;Max_cycle;Signal;HPM_P1;HPM_P2
2021/07/06 00:02:55;;;;;;;7.35;6.03;;;;;;;21.90;80.39;99782.31;1768062;80;21804;-59
2021/07/06 00:06:01;;;;;;;8.15;6.05;;;;;;;21.89;80.39;99780.64;1767793;81;22034;-59
2021/07/06 00:09:07;;;;;;;9.15;5.95;;;;;;;21.87;80.47;99796.78;1767995;80;21173;-58
2021/07/06 00:12:16;;;;;;;7.83;5.70;;;;;;;21.87;80.55;99796.78;1767603;80;21203;-60
2021/07/06 00:15:25;;;;;;;7.05;6.35;;;;;;;21.86;80.60;99797.89;1767848;81;21364;-58
2021/07/06 00:18:32;;;;;;;9.10;6.40;;;;;;;21.87;80.56;99796.78;1767624;81;21314;-59
2021/07/06 00:21:39;;;;;;;7.33;6.33;;;;;;;21.84;80.61;99802.03;1768075;81;21370;-59
2021/07/06 00:24:50;;;;;;;7.12;6.15;;;;;;;21.82;80.63;99797.26;1767962;81;21242;-58
2021/07/06 00:27:56;;;;;;;8.25;6.80;;;;;;;21.79;80.76;99797.79;1767584;81;21330;-60
2021/07/06 00:31:03;;;;;;;9.33;6.55;;;;;;;21.77;80.92;99800.02;1755339;78;21313;-59
2021/07/06 00:34:09;;;;;;;9.48;6.35;;;;;;;21.77;80.97;99806.98;1747136;81;21333;-60
2021/07/06 00:37:16;;;;;;;8.35;6.20;;;;;;;21.73;81.01;99808.02;1740421;81;21187;-58
2021/07/06 00:40:22;;;;;;;8.38;6.90;;;;;;;21.68;81.20;99809.36;1744070;81;21227;-58
2021/07/06 00:43:29;;;;;;;9.55;7.05;;;;;;;21.64;81.44;99811.00;1737549;81;21377;-59
2021/07/06 00:46:37;;;;;;;9.98;6.35;;;;;;;21.62;81.52;99804.84;1737233;81;21413;-59
2021/07/06 00:49:44;;;;;;;9.30;6.70;;;;;;;21.63;81.61;99806.51;1736332;81;21341;-59
2021/07/06 00:52:52;;;;;;;7.40;6.00;;;;;;;21.65;81.68;99816.00;1737534;81;21380;-59
2021/07/06 00:56:02;;;;;;;10.05;6.45;;;;;;;21.66;81.63;99811.55;1749689;81;21254;-59
2021/07/06 00:59:09;;;;;;;7.83;5.92;;;;;;;21.64;81.65;99808.21;1742273;81;21219;-59
2021/07/06 01:02:14;;;;;;;8.38;6.45;;;;;;;21.66;81.70;99817.70;1739860;81;21254;-60
2021/07/06 01:05:25;;;;;;;8.95;7.17;;;;;;;21.63;81.69;99812.08;1736668;82;21369;-59
2021/07/06 01:08:32;;;;;;;8.33;6.37;;;;;;;21.59;81.71;99817.91;1736161;82;21274;-59
2021/07/06 01:11:41;;;;;;;9.38;6.67;;;;;;;21.53;82.07;99828.66;1735874;82;21246;-59
2021/07/06 01:14:48;;;;;;;9.70;6.47;;;;;;;21.54;82.29;99830.38;1736294;82;21393;-58
2021/07/06 01:18:17;;;;;;;7.10;6.28;;;;;;;21.57;82.43;99827.06;1738854;81;21357;-59
2021/07/06 01:21:24;;;;;;;12.33;6.90;;;;;;;21.60;82.41;99832.65;1749833;81;21369;-59
2021/07/06 01:24:30;;;;;;;10.05;6.72;;;;;;;21.63;82.33;99841.87;1746103;81;21420;-58
2021/07/06 01:27:35;;;;;;;13.32;7.45;;;;;;;21.63;82.29;99837.16;1736627;82;21447;-58
2021/07/06 01:30:45;;;;;;;9.63;6.83;;;;;;;21.61;82.31;99839.35;1736641;82;21242;-58
2021/07/06 01:33:50;;;;;;;8.90;7.40;;;;;;;21.59;82.33;99837.94;1706356;84;21350;-58
2021/07/06 01:36:57;;;;;;;8.38;6.58;;;;;;;21.55;82.43;99843.19;1735649;82;21712;-57
2021/07/06 01:40:03;;;;;;;8.85;7.37;;;;;;;21.53;82.51;99848.16;1737127;82;21196;-58
2021/07/06 01:43:11;;;;;;;9.25;7.25;;;;;;;21.50;82.65;99854.26;1737328;82;21200;-59
2021/07/06 01:46:18;;;;;;;9.30;7.05;;;;;;;21.47;82.77;99857.56;1737380;82;21274;-59
2021/07/06 01:49:26;;;;;;;10.15;6.53;;;;;;;21.45;82.83;99858.94;1737008;82;21250;-59
2021/07/06 01:52:30;;;;;;;9.38;6.95;;;;;;;21.45;82.93;99863.97;1737283;82;21191;-59
2021/07/06 01:55:40;;;;;;;8.13;7.17;;;;;;;21.45;82.89;99860.33;1737132;82;21224;-59
2021/07/06 01:58:47;;;;;;;8.73;7.40;;;;;;;21.42;82.92;99871.42;1737011;82;21295;-58
2021/07/06 02:01:53;;;;;;;8.55;7.28;;;;;;;21.42;83.00;99876.98;1737297;82;21220;-60
2021/07/06 02:05:01;;;;;;;9.23;6.55;;;;;;;21.37;83.12;99873.31;1737320;82;21254;-57
2021/07/06 02:08:07;;;;;;;10.63;7.15;;;;;;;21.39;83.15;99878.08;1737795;82;21693;-60
2021/07/06 02:11:15;;;;;;;11.78;6.92;;;;;;;21.38;83.12;99879.16;1737252;82;21306;-59
2021/07/06 02:14:21;;;;;;;9.45;7.12;;;;;;;21.38;83.11;99877.23;1737431;82;21707;-61
2021/07/06 02:17:27;;;;;;;9.85;7.75;;;;;;;21.37;83.09;99879.73;1737307;82;21354;-58
2021/07/06 02:20:31;;;;;;;9.40;6.25;;;;;;;21.41;83.01;99880.04;1737477;82;21231;-58
2021/07/06 02:23:37;;;;;;;9.60;5.97;;;;;;;21.42;82.90;99890.09;1737437;82;21607;-57
2021/07/06 02:26:42;;;;;;;10.78;6.80;;;;;;;21.45;82.74;99884.86;1737532;82;21232;-58
2021/07/06 02:29:49;;;;;;;9.90;7.05;;;;;;;21.48;82.60;99885.73;1737809;82;21323;-59
2021/07/06 02:32:56;;;;;;;7.15;6.45;;;;;;;21.49;82.33;99887.41;1746796;80;21351;-57
2021/07/06 02:36:01;;;;;;;8.38;7.05;;;;;;;21.46;82.39;99882.89;1771813;80;21228;-57
2021/07/06 02:39:12;;;;;;;11.10;6.55;;;;;;;21.46;82.33;99880.11;1771869;80;21308;-57
2021/07/06 02:42:17;;;;;;;8.90;6.25;;;;;;;21.46;82.41;99879.57;1771069;81;21395;-58
2021/07/06 02:45:23;;;;;;;8.60;6.40;;;;;;;21.48;82.34;99887.13;1771926;80;21355;-58
2021/07/06 02:48:28;;;;;;;9.80;7.00;;;;;;;21.50;82.34;99886.86;1771172;81;21390;-59
2021/07/06 02:51:35;;;;;;;9.98;6.03;;;;;;;21.58;82.15;99892.80;1771643;80;21233;-55
2021/07/06 02:54:43;;;;;;;7.67;6.50;;;;;;;21.62;81.80;99896.78;1762127;81;21379;-56
2021/07/06 02:57:52;;;;;;;11.38;6.92;;;;;;;21.66;81.38;99893.75;1770893;80;21347;-55
2021/07/06 03:00:57;;;;;;;7.72;6.42;;;;;;;21.68;81.30;99895.73;1772015;80;21335;-57
2021/07/06 03:04:05;;;;;;;9.60;6.05;;;;;;;21.74;80.86;99900.83;1771341;80;21324;-55
2021/07/06 03:07:11;;;;;;;8.60;6.12;;;;;;;21.76;80.70;99898.09;1770852;81;21178;-55
2021/07/06 03:10:20;;;;;;;8.38;6.15;;;;;;;21.75;80.30;99901.99;1770975;81;21344;-55
2021/07/06 03:13:25;;;;;;;8.38;6.12;;;;;;;21.75;80.11;99904.78;1771283;81;21316;-54
2021/07/06 03:16:31;;;;;;;9.45;5.83;;;;;;;21.81;79.91;99905.12;1771232;80;21487;-55
2021/07/06 03:19:40;;;;;;;7.55;6.40;;;;;;;21.84;79.51;99910.72;1771243;81;21999;-55
2021/07/06 03:22:48;;;;;;;6.17;5.47;;;;;;;21.83;79.22;99907.66;1764445;80;21868;-55
2021/07/06 03:25:56;;;;;;;7.87;6.60;;;;;;;21.82;79.27;99913.77;1771259;81;21209;-55
2021/07/06 03:29:02;;;;;;;8.80;5.78;;;;;;;21.84;79.34;99912.97;1763933;80;21375;-56
2021/07/06 03:32:10;;;;;;;9.08;6.28;;;;;;;21.91;79.07;99909.41;1771263;80;21236;-58
2021/07/06 03:35:16;;;;;;;7.15;5.80;;;;;;;21.93;78.37;99911.93;1751645;80;21408;-57
2021/07/06 03:38:23;;;;;;;10.72;6.50;;;;;;;21.96;78.28;99909.47;1744943;81;21814;-58
2021/07/06 03:41:30;;;;;;;7.53;5.50;;;;;;;22.05;78.08;99910.71;1737166;82;21739;-57
2021/07/06 03:44:36;;;;;;;6.33;5.65;;;;;;;22.11;77.55;99915.78;1731724;82;21219;-58
2021/07/06 03:47:46;;;;;;;9.85;5.55;;;;;;;22.10;77.33;99914.10;1735468;82;21388;-58
2021/07/06 03:50:52;;;;;;;10.05;6.17;;;;;;;22.11;77.06;99922.75;1736027;82;21353;-59
2021/07/06 03:54:00;;;;;;;15.03;5.97;;;;;;;22.09;76.82;99913.25;1736710;82;21452;-58
2021/07/06 03:57:06;;;;;;;9.35;5.67;;;;;;;22.11;76.73;99917.17;1736403;82;21357;-60
2021/07/06 04:00:19;;;;;;;8.40;6.10;;;;;;;22.14;76.75;99915.25;1736986;82;21349;-57
2021/07/06 04:03:25;;;;;;;10.80;6.22;;;;;;;22.14;76.61;99922.22;1736530;81;21823;-57
2021/07/06 04:06:31;;;;;;;9.43;5.67;;;;;;;22.13;76.32;99919.16;1745543;81;21425;-58
2021/07/06 04:09:38;;;;;;;9.88;5.10;;;;;;;22.14;76.11;99914.70;1725993;82;21329;-58
2021/07/06 04:12:47;;;;;;;7.12;5.05;;;;;;;22.15;75.83;99914.98;1742583;81;21329;-59
2021/07/06 04:15:54;;;;;;;7.60;5.72;;;;;;;22.18;75.72;99914.45;1736463;81;21243;-58
2021/07/06 04:19:02;;;;;;;8.20;5.60;;;;;;;22.20;75.48;99912.26;1735802;82;21381;-59
2021/07/06 04:22:08;;;;;;;6.37;5.37;;;;;;;22.26;75.47;99914.56;1739147;81;21171;-59
2021/07/06 04:25:17;;;;;;;6.53;5.08;;;;;;;22.33;75.17;99915.17;1745987;81;21226;-60
2021/07/06 04:28:22;;;;;;;6.70;5.53;;;;;;;22.40;74.95;99921.94;1744763;81;21369;-58
2021/07/06 04:31:27;;;;;;;9.28;5.35;;;;;;;22.44;74.61;99925.33;1737697;81;21385;-59
2021/07/06 04:34:35;;;;;;;10.32;5.87;;;;;;;22.54;74.06;99927.41;1736163;81;21365;-57
2021/07/06 04:37:41;;;;;;;12.30;5.00;;;;;;;22.61;74.01;99933.05;1771050;81;21252;-58
2021/07/06 04:40:49;;;;;;;8.28;5.67;;;;;;;22.70;73.87;99932.03;1771292;80;21236;-59
2021/07/06 04:43:55;;;;;;;9.33;5.42;;;;;;;22.76;73.43;99931.81;1771193;81;21336;-59
2021/07/06 04:46:59;;;;;;;9.40;4.87;;;;;;;22.84;73.05;99938.84;1771013;80;21259;-62
2021/07/06 04:50:11;;;;;;;6.87;4.45;;;;;;;22.89;72.60;99931.91;1771325;81;21216;-61
2021/07/06 04:53:18;;;;;;;6.12;5.10;;;;;;;22.98;72.19;99933.09;1769463;80;21351;-62
2021/07/06 04:56:26;;;;;;;5.50;4.62;;;;;;;23.06;72.29;99939.58;1771067;80;21872;-59
2021/07/06 04:59:33;;;;;;;5.95;4.65;;;;;;;23.20;71.78;99940.80;1752107;80;21371;-59
2021/07/06 05:02:40;;;;;;;7.12;4.65;;;;;;;23.31;71.11;99930.01;1747716;81;21382;-61
2021/07/06 05:05:49;;;;;;;7.37;4.62;;;;;;;23.32;70.66;99941.48;1735735;80;22052;-59
2021/07/06 05:08:56;;;;;;;6.12;4.78;;;;;;;23.29;70.59;99939.23;1768415;80;21758;-60
2021/07/06 05:12:03;;;;;;;8.10;4.67;;;;;;;23.33;70.63;99931.98;1768399;80;21714;-58
2021/07/06 05:15:13;;;;;;;5.67;4.60;;;;;;;23.51;70.76;99930.16;1764625;80;21441;-57
2021/07/06 05:18:21;;;;;;;8.05;4.85;;;;;;;23.76;70.29;99921.04;1752890;80;21733;-57
2021/07/06 05:21:48;;;;;;;6.22;4.25;;;;;;;23.97;69.74;99926.49;1770707;79;21352;-55
2021/07/06 05:24:58;;;;;;;7.15;4.20;;;;;;;24.15;69.23;99924.58;1794102;79;21181;-55
2021/07/06 05:28:05;;;;;;;10.63;4.22;;;;;;;24.25;68.28;99929.36;1793584;80;21717;-55
2021/07/06 05:31:20;;;;;;;9.38;4.30;;;;;;;24.38;68.49;99939.48;1771465;79;21417;-55
2021/07/06 05:34:29;;;;;;;7.40;4.10;;;;;;;24.46;67.57;99948.73;1792983;80;21177;-56
2021/07/06 05:37:36;;;;;;;6.70;4.30;;;;;;;24.45;66.76;99937.81;1793657;79;21324;-54
2021/07/06 05:40:44;;;;;;;13.62;4.80;;;;;;;24.44;67.11;99938.91;1792914;79;21386;-57
2021/07/06 05:43:57;;;;;;;6.12;4.35;;;;;;;24.49;67.67;99948.17;1792991;80;21363;-57
2021/07/06 05:47:16;;;;;;;7.60;4.50;;;;;;;24.59;67.19;99943.97;1779705;79;21817;-57
2021/07/06 05:50:23;;;;;;;8.95;4.37;;;;;;;24.73;67.12;99947.97;1762625;80;21562;-57
2021/07/06 05:53:30;;;;;;;6.35;4.10;;;;;;;24.83;66.46;99949.36;1760406;81;21224;-57
2021/07/06 05:56:38;;;;;;;8.40;5.12;;;;;;;24.85;65.62;99946.27;1784132;79;21429;-57
2021/07/06 05:59:43;;;;;;;8.38;4.00;;;;;;;24.73;65.67;99954.13;1776486;79;21341;-56
2021/07/06 06:02:54;;;;;;;6.72;3.98;;;;;;;24.76;65.85;99953.56;1778038;80;21853;-56
2021/07/06 06:06:07;;;;;;;5.28;4.22;;;;;;;24.81;65.70;99946.57;1777172;79;21328;-56
2021/07/06 06:09:13;;;;;;;6.12;4.08;;;;;;;24.84;65.27;99944.61;1788048;79;21892;-56
2021/07/06 06:12:26;;;;;;;9.40;3.95;;;;;;;24.79;65.00;99946.84;1769790;79;21252;-57
2021/07/06 06:15:38;;;;;;;7.33;3.72;;;;;;;24.76;65.60;99945.16;1709914;83;21241;-56
2021/07/06 06:18:42;;;;;;;10.93;4.25;;;;;;;24.83;65.55;99951.34;1710752;82;21782;-57
2021/07/06 06:21:48;;;;;;;7.37;3.95;;;;;;;24.93;65.45;99964.77;1777952;80;21689;-56
2021/07/06 06:25:00;;;;;;;5.58;3.33;;;;;;;25.01;65.18;99969.81;1773701;79;21371;-56
2021/07/06 06:28:14;;;;;;;7.90;3.95;;;;;;;25.06;64.96;99966.17;1761343;81;22137;-55
2021/07/06 06:31:22;;;;;;;6.42;3.25;;;;;;;25.14;64.54;99962.81;1763647;80;21339;-56
2021/07/06 06:34:31;;;;;;;8.00;3.83;;;;;;;25.19;63.69;99970.37;1779941;79;21339;-57
2021/07/06 06:37:47;;;;;;;5.92;3.35;;;;;;;25.30;63.75;99970.64;1774369;79;21386;-57
2021/07/06 06:41:02;;;;;;;10.25;3.65;;;;;;;25.51;64.29;99970.93;1773043;79;21724;-56
2021/07/06 06:44:14;;;;;;;8.15;3.25;;;;;;;25.68;63.03;99973.70;1792586;80;22227;-55
2021/07/06 06:47:24;;;;;;;7.00;2.70;;;;;;;25.70;62.57;99976.22;1773393;80;21412;-56
2021/07/06 06:50:35;;;;;;;7.45;2.75;;;;;;;25.80;62.13;99980.41;1743540;79;21233;-55
2021/07/06 06:53:45;;;;;;;6.95;2.92;;;;;;;25.81;61.21;99975.91;1767114;79;21267;-57
2021/07/06 06:56:55;;;;;;;3.85;3.08;;;;;;;25.86;61.07;99970.26;1761528;81;21393;-57
2021/07/06 07:00:05;;;;;;;6.83;3.00;;;;;;;26.01;60.93;99982.02;1761690;81;21204;-55
2021/07/06 07:03:11;;;;;;;4.40;2.92;;;;;;;26.16;60.46;99977.19;1762081;81;21188;-55
2021/07/06 07:06:19;;;;;;;6.78;2.85;;;;;;;26.25;60.43;99972.67;1766403;80;21710;-54
2021/07/06 07:09:26;;;;;;;4.12;3.05;;;;;;;26.30;59.42;99977.42;1772152;80;21867;-55
2021/07/06 07:12:36;;;;;;;4.58;3.22;;;;;;;26.23;60.11;99976.88;1771094;80;21317;-55
2021/07/06 07:15:47;;;;;;;4.67;2.98;;;;;;;26.22;60.45;99977.46;1790494;79;21248;-56
2021/07/06 07:18:56;;;;;;;5.90;3.62;;;;;;;26.30;60.55;99980.22;1782018;80;21344;-56
2021/07/06 07:22:13;;;;;;;3.85;3.02;;;;;;;26.36;59.84;99977.66;1761602;81;21875;-57
2021/07/06 07:25:21;;;;;;;10.18;3.55;;;;;;;26.36;59.69;99974.30;1769470;80;21209;-55
2021/07/06 07:28:29;;;;;;;6.00;3.62;;;;;;;26.49;59.53;99985.45;1755310;81;21185;-56
2021/07/06 07:31:35;;;;;;;8.90;3.67;;;;;;;26.62;59.63;99984.83;1780876;79;21193;-56
2021/07/06 07:34:48;;;;;;;9.80;4.03;;;;;;;26.71;59.25;99983.10;1750644;81;21800;-55
2021/07/06 07:37:56;;;;;;;5.97;3.25;;;;;;;26.77;59.56;99985.30;1788095;80;21197;-55
2021/07/06 07:41:09;;;;;;;6.70;3.42;;;;;;;26.84;58.51;99983.86;1769460;80;22158;-54
2021/07/06 07:44:21;;;;;;;8.30;2.85;;;;;;;26.85;58.32;99986.93;1784604;79;21323;-56
2021/07/06 07:47:30;;;;;;;6.70;3.12;;;;;;;26.89;57.73;99993.66;1737524;81;21865;-56
2021/07/06 07:50:42;;;;;;;4.20;3.02;;;;;;;26.76;57.54;99990.09;1729390;82;21213;-56
2021/07/06 07:53:50;;;;;;;7.72;3.30;;;;;;;26.74;58.27;99983.92;1768389;80;21173;-56
2021/07/06 07:57:02;;;;;;;12.23;3.30;;;;;;;26.70;57.88;99996.88;1752722;80;21231;-57
2021/07/06 08:00:16;;;;;;;11.75;3.80;;;;;;;26.76;58.42;99993.45;1767743;80;21381;-57
2021/07/06 08:03:36;;;;;;;8.78;3.37;;;;;;;26.85;58.12;99995.36;1767134;79;21208;-57
2021/07/06 08:06:47;;;;;;;7.00;3.40;;;;;;;26.93;57.87;99997.55;1798226;79;21910;-58
2021/07/06 08:10:06;;;;;;;8.25;3.50;;;;;;;27.02;57.69;99997.78;1792202;79;21814;-55
2021/07/06 08:13:23;;;;;;;5.83;3.52;;;;;;;27.10;57.08;99999.38;1790607;79;21957;-57
2021/07/06 08:16:33;;;;;;;6.03;3.12;;;;;;;27.08;56.34;99996.05;1789130;79;21359;-55
2021/07/06 08:19:43;;;;;;;5.30;3.25;;;;;;;27.15;56.57;100002.16;1797559;79;22207;-56
2021/07/06 08:23:02;;;;;;;8.20;3.00;;;;;;;27.29;56.45;100003.19;1794011;79;21805;-57
2021/07/06 08:26:16;;;;;;;6.28;2.67;;;;;;;27.42;56.09;100006.73;1750345;80;21256;-55
2021/07/06 08:29:27;;;;;;;6.10;3.02;;;;;;;27.48;55.59;100006.13;1750963;82;21364;-56
2021/07/06 08:32:44;;;;;;;8.00;3.08;;;;;;;27.47;55.24;100001.62;1789020;80;21344;-56
2021/07/06 08:36:00;;;;;;;5.50;3.08;;;;;;;27.38;54.97;100005.66;1776172;79;21421;-56
2021/07/06 08:39:07;;;;;;;6.15;3.17;;;;;;;27.17;55.64;100008.33;1792674;80;21233;-56
2021/07/06 08:42:16;;;;;;;11.75;3.62;;;;;;;27.19;55.73;100014.51;1759164;80;21727;-56
2021/07/06 08:45:25;;;;;;;6.25;3.40;;;;;;;27.17;55.67;100011.14;1766152;80;21382;-56
2021/07/06 08:48:39;;;;;;;6.10;3.70;;;;;;;27.23;56.34;100007.70;1752580;80;21741;-57
2021/07/06 08:51:50;;;;;;;8.28;3.20;;;;;;;27.43;56.58;100012.62;1775176;80;21328;-55
2021/07/06 08:55:04;;;;;;;4.62;3.30;;;;;;;27.53;55.52;100012.53;1760711;79;21385;-57
2021/07/06 08:58:12;;;;;;;4.12;3.00;;;;;;;27.40;55.47;100025.86;1751171;80;21264;-55
2021/07/06 09:01:24;;;;;;;7.03;3.22;;;;;;;27.31;55.61;100022.02;1757450;80;22097;-57
2021/07/06 09:04:55;;;;;;;;;;;;;;;27.17;56.55;100019.58;1773764;79;21355;-56
2021/07/06 09:08:01;;;;;;;9.63;3.58;;;;;;;27.21;56.63;100023.46;1770982;79;20219;-56
2021/07/06 09:11:22;;;;;;;7.10;3.42;;;;;;;27.35;56.77;100024.50;1751875;80;21355;-56
2021/07/06 09:14:31;;;;;;;7.05;2.95;;;;;;;27.52;56.36;100029.70;1736008;82;21344;-57
2021/07/06 09:17:44;;;;;;;9.90;4.40;;;;;;;27.70;55.44;100034.02;1775554;80;21343;-56
2021/07/06 09:21:08;;;;;;;14.23;4.00;;;;;;;27.75;55.10;100042.97;1792955;79;21908;-57
2021/07/06 09:24:15;;;;;;;8.33;3.87;;;;;;;27.80;54.38;100049.40;1793169;80;21860;-58
2021/07/06 09:27:37;;;;;;;7.90;3.10;;;;;;;27.77;54.38;100045.77;1739072;80;21383;-54
2021/07/06 09:30:50;;;;;;;7.42;3.72;;;;;;;27.76;54.21;100052.55;1783116;79;21225;-56
2021/07/06 09:34:18;;;;;;;5.15;2.83;;;;;;;27.73;55.04;100045.27;1761300;80;21213;-57
2021/07/06 09:37:27;;;;;;;7.47;3.00;;;;;;;27.92;55.53;100053.81;1760115;81;21745;-58
2021/07/06 09:40:45;;;;;;;11.55;3.40;;;;;;;28.12;55.45;100057.25;1760716;81;21315;-57
2021/07/06 09:43:59;;;;;;;4.08;2.92;;;;;;;28.21;55.04;100051.22;1760457;81;21359;-56
2021/07/06 09:47:20;;;;;;;6.28;3.00;;;;;;;28.23;54.88;100053.17;1761344;81;21681;-56
2021/07/06 09:50:25;;;;;;;6.25;2.77;;;;;;;28.15;54.40;100062.84;1744840;81;21229;-58
2021/07/06 09:53:40;;;;;;;3.75;2.27;;;;;;;27.93;53.67;100065.34;1744688;81;21217;-56
2021/07/06 09:56:51;;;;;;;7.45;2.70;;;;;;;27.66;54.52;100069.52;1762561;79;21247;-58
2021/07/06 10:00:08;;;;;;;9.65;2.52;;;;;;;27.47;55.35;100068.56;1792680;80;21317;-57
2021/07/06 10:03:15;;;;;;;6.25;2.70;;;;;;;27.29;55.45;100076.88;1793678;79;21324;-57
2021/07/06 10:06:24;;;;;;;6.20;2.75;;;;;;;27.18;56.11;100082.27;1745808;81;21566;-55
2021/07/06 10:09:33;;;;;;;12.63;3.02;;;;;;;27.09;56.54;100075.00;1761881;81;21371;-54
2021/07/06 10:12:39;;;;;;;5.95;3.22;;;;;;;27.01;56.58;100079.83;1761750;81;21314;-56
2021/07/06 10:15:51;;;;;;;5.53;3.00;;;;;;;26.89;56.77;100077.95;1746903;81;21826;-55
2021/07/06 10:19:01;;;;;;;8.53;3.02;;;;;;;26.80;57.33;100082.48;1775212;80;21374;-56
2021/07/06 10:22:07;;;;;;;7.75;2.80;;;;;;;26.72;57.61;100087.30;1777932;80;21765;-57
2021/07/06 10:25:17;;;;;;;7.20;3.15;;;;;;;26.60;57.81;100088.17;1765308;80;21332;-56
2021/07/06 10:28:41;;;;;;;8.83;4.00;;;;;;;26.52;58.43;100088.77;1726837;81;21218;-55
2021/07/06 10:31:51;;;;;;;10.08;3.55;;;;;;;26.46;58.96;100085.71;1784655;80;21319;-55
2021/07/06 10:35:19;;;;;;;14.70;3.75;;;;;;;26.40;59.01;100093.30;1760848;81;21355;-57
2021/07/06 10:38:43;;;;;;;10.72;3.47;;;;;;;26.24;59.26;100100.08;1788656;80;21837;-55
2021/07/06 10:42:10;;;;;;;9.28;3.60;;;;;;;26.16;59.78;100107.68;1785600;80;21797;-55
2021/07/06 10:45:35;;;;;;;10.53;3.80;;;;;;;26.12;60.20;100109.94;1751854;79;21446;-55
2021/07/06 10:49:23;;;;;;;11.10;4.97;;;;;;;26.05;60.42;100115.03;1793455;80;21703;-55
2021/07/06 10:52:44;;;;;;;7.28;3.83;;;;;;;25.98;60.97;100117.23;1754356;80;21355;-54
2021/07/06 10:56:11;;;;;;;9.00;3.55;;;;;;;25.86;61.24;100127.92;1787876;80;21717;-55
2021/07/06 10:59:37;;;;;;;7.40;3.62;;;;;;;25.83;60.96;100118.67;1762698;81;21330;-56
2021/07/06 11:03:26;;;;;;;6.12;3.20;;;;;;;25.99;61.12;100128.76;1766706;80;21350;-56
2021/07/06 11:06:58;;;;;;;7.33;2.83;;;;;;;26.28;60.90;100127.03;1792168;79;21434;-55
2021/07/06 11:10:25;;;;;;;5.35;3.02;;;;;;;26.62;60.10;100125.25;1790258;80;21280;-57
2021/07/06 11:13:38;;;;;;;6.30;3.42;;;;;;;26.88;59.11;100133.84;1782354;79;21288;-54
2021/07/06 11:17:14;;;;;;;6.87;2.72;;;;;;;27.00;58.75;100141.95;1761281;80;21804;-56
2021/07/06 11:20:32;;;;;;;6.05;3.47;;;;;;;27.16;57.15;100133.13;1762444;81;21347;-55
2021/07/06 11:23:42;;;;;;;5.30;3.25;;;;;;;27.12;56.92;100139.06;1763757;80;21378;-55
2021/07/06 11:26:54;;;;;;;4.53;2.75;;;;;;;27.11;57.22;100147.78;1782379;80;21845;-55
2021/07/06 11:30:01;;;;;;;14.15;3.40;;;;;;;27.02;57.04;100153.16;1791163;79;21268;-55
2021/07/06 11:33:22;;;;;;;9.10;3.45;;;;;;;26.90;57.13;100155.48;1793286;80;21358;-54
2021/07/06 11:36:30;;;;;;;8.13;4.40;;;;;;;26.85;57.18;100162.52;1793095;79;21237;-55
2021/07/06 11:39:37;;;;;;;9.38;4.90;;;;;;;26.78;57.64;100162.02;1793412;80;21415;-55
2021/07/06 11:42:44;;;;;;;10.82;4.03;;;;;;;26.68;57.80;100167.66;1786725;80;21245;-55
2021/07/06 11:45:59;;;;;;;5.37;3.00;;;;;;;26.56;57.83;100170.48;1746334;80;21236;-54
2021/07/06 11:49:09;;;;;;;10.43;3.22;;;;;;;26.35;58.02;100174.72;1788996;80;21340;-55
2021/07/06 11:52:16;;;;;;;9.65;2.87;;;;;;;26.26;58.65;100176.98;1776237;80;21201;-56
2021/07/06 11:55:33;;;;;;;9.95;4.00;;;;;;;26.29;58.31;100172.23;1792147;79;21189;-57
2021/07/06 11:58:42;;;;;;;8.03;3.30;;;;;;;26.33;57.98;100174.19;1768693;80;21205;-57
2021/07/06 12:01:49;;;;;;;6.28;3.20;;;;;;;26.27;57.90;100166.06;1768313;79;21889;-57
2021/07/06 12:04:54;;;;;;;8.18;2.98;;;;;;;26.10;58.34;100172.55;1779558;79;21256;-56
2021/07/06 12:08:02;;;;;;;8.08;2.90;;;;;;;26.06;58.41;100172.81;1776679;79;21538;-55
2021/07/06 12:11:22;;;;;;;5.60;3.05;;;;;;;26.00;58.85;100178.16;1757682;80;21571;-56
2021/07/06 12:14:29;;;;;;;4.65;2.80;;;;;;;25.98;59.24;100177.01;1764688;79;21201;-55
2021/07/06 12:17:37;;;;;;;4.65;2.83;;;;;;;26.06;59.24;100180.69;1743076;81;21791;-56
2021/07/06 12:20:44;;;;;;;5.95;3.50;;;;;;;26.13;58.94;100170.58;1744886;81;21264;-56
2021/07/06 12:23:53;;;;;;;8.33;3.37;;;;;;;26.20;58.97;100171.11;1740155;81;21237;-58
2021/07/06 12:27:02;;;;;;;13.35;3.37;;;;;;;26.27;58.84;100170.27;1762091;81;21355;-57
2021/07/06 12:30:07;;;;;;;8.73;3.10;;;;;;;26.39;59.01;100175.85;1756496;79;21325;-57
2021/07/06 12:33:15;;;;;;;6.60;3.10;;;;;;;26.50;58.60;100165.43;1701326;83;21256;-57
2021/07/06 12:36:21;;;;;;;9.88;3.45;;;;;;;26.60;58.54;100171.02;1728279;82;21406;-56
2021/07/06 12:39:33;;;;;;;11.53;2.90;;;;;;;26.61;58.65;100178.31;1709059;82;21189;-58
2021/07/06 12:42:45;;;;;;;;;;;;;;;26.64;58.55;100172.15;1723017;83;21268;-58
2021/07/06 12:45:53;;;;;;;7.87;3.07;;;;;;;26.68;58.23;100178.89;1701803;84;20220;-57
2021/07/06 12:49:28;;;;;;;6.95;2.80;;;;;;;26.66;57.92;100173.27;1723806;82;21541;-57
2021/07/06 12:52:49;;;;;;;10.30;3.92;;;;;;;26.60;58.09;100177.19;1730362;82;21825;-57
2021/07/06 12:55:59;;;;;;;8.28;3.72;;;;;;;26.54;57.71;100184.81;1728669;83;21857;-56
2021/07/06 12:59:32;;;;;;;9.53;3.60;;;;;;;26.37;58.25;100187.92;1729027;82;21356;-58
2021/07/06 13:02:40;;;;;;;6.37;3.85;;;;;;;26.38;58.96;100195.24;1711991;83;21351;-55
2021/07/06 13:05:54;;;;;;;6.35;3.40;;;;;;;26.27;59.54;100189.92;1726532;82;21433;-57
2021/07/06 13:09:06;;;;;;;16.42;3.83;;;;;;;26.11;60.37;100189.66;1700415;84;21885;-58
2021/07/06 13:12:21;;;;;;;9.45;3.60;;;;;;;25.99;60.73;100203.11;1700636;83;21713;-58
2021/07/06 13:15:42;;;;;;;5.30;3.47;;;;;;;25.84;60.95;100203.09;1684238;83;21224;-56
2021/07/06 13:18:53;;;;;;;6.47;3.52;;;;;;;25.65;61.29;100212.63;1717663;83;21259;-57
2021/07/06 13:22:00;;;;;;;7.55;3.35;;;;;;;25.50;62.06;100211.17;1726458;83;21644;-58
2021/07/06 13:25:18;;;;;;;11.38;3.95;;;;;;;25.43;62.98;100205.56;1729540;83;21201;-59
2021/07/06 13:28:23;;;;;;;7.78;3.50;;;;;;;25.32;63.77;100215.89;1707351;82;21566;-59
2021/07/06 13:31:33;;;;;;;7.37;3.77;;;;;;;25.24;64.29;100213.63;1706914;79;21248;-59
2021/07/06 13:34:38;;;;;;;6.70;3.65;;;;;;;25.21;64.67;100221.73;1736354;81;21184;-58
2021/07/06 13:37:48;;;;;;;6.60;3.42;;;;;;;25.16;65.03;100219.75;1688500;84;21229;-56
2021/07/06 13:40:57;;;;;;;7.70;4.60;;;;;;;25.19;65.37;100222.55;1711143;82;21261;-57
2021/07/06 13:44:06;;;;;;;7.95;4.25;;;;;;;25.06;65.71;100226.72;1695455;82;21343;-57
2021/07/06 13:47:13;;;;;;;8.65;3.90;;;;;;;24.95;66.57;100224.44;1728712;82;21854;-57
2021/07/06 13:50:23;;;;;;;11.60;4.22;;;;;;;24.89;66.99;100223.28;1730197;82;21418;-56
2021/07/06 13:53:29;;;;;;;7.20;4.00;;;;;;;24.75;67.52;100227.13;1689171;84;21488;-54
2021/07/06 13:56:35;;;;;;;13.30;4.15;;;;;;;24.72;68.02;100235.25;1730984;83;21252;-55
2021/07/06 13:59:41;;;;;;;4.92;4.10;;;;;;;24.77;67.95;100224.90;1678351;84;21209;-55
2021/07/06 14:02:48;;;;;;;5.60;3.90;;;;;;;24.74;68.01;100228.25;1729881;82;21240;-56
2021/07/06 14:05:56;;;;;;;7.70;4.65;;;;;;;24.73;68.12;100238.32;1729933;82;21219;-56
2021/07/06 14:09:06;;;;;;;8.23;4.25;;;;;;;24.76;68.07;100239.17;1684240;84;21253;-55
2021/07/06 14:12:11;;;;;;;8.80;4.40;;;;;;;24.73;67.88;100243.38;1730573;82;21224;-55
2021/07/06 14:15:18;;;;;;;10.78;4.40;;;;;;;24.64;68.14;100240.75;1682208;84;21213;-55
2021/07/06 14:18:38;;;;;;;6.12;3.83;;;;;;;24.67;68.24;100236.61;1713724;83;21196;-56
2021/07/06 14:21:47;;;;;;;6.30;3.75;;;;;;;24.69;67.78;100239.41;1683544;84;21213;-55
2021/07/06 14:24:55;;;;;;;5.92;3.90;;;;;;;24.69;67.21;100236.61;1728595;82;21260;-57
2021/07/06 14:28:01;;;;;;;8.38;4.22;;;;;;;24.63;67.23;100239.62;1716968;83;21232;-56
2021/07/06 14:31:09;;;;;;;6.85;4.08;;;;;;;24.64;67.08;100236.55;1722554;82;21248;-57
2021/07/06 14:34:17;;;;;;;9.98;4.30;;;;;;;24.57;67.25;100235.97;1755452;77;21310;-56
2021/07/06 14:37:26;;;;;;;12.35;4.25;;;;;;;24.62;67.44;100237.41;1761451;81;21377;-55
2021/07/06 14:40:33;;;;;;;8.90;4.28;;;;;;;24.76;67.43;100245.62;1760922;81;21515;-56
2021/07/06 14:43:38;;;;;;;7.25;4.83;;;;;;;24.82;67.18;100243.13;1761444;81;21676;-55
2021/07/06 14:46:46;;;;;;;9.13;4.80;;;;;;;24.95;67.02;100239.84;1761584;81;21230;-59
2021/07/06 14:49:54;;;;;;;9.48;4.70;;;;;;;25.05;66.98;100243.25;1761158;81;21376;-58
2021/07/06 14:53:04;;;;;;;9.30;4.75;;;;;;;25.15;67.04;100239.06;1743914;81;21352;-56